sensor_id;sensor_type;location;lat;lon;timestamp;P1;durP1;ratioP1;P2;durP2;ratioP2
74415;SDS011;62850;42.428;25.618;2023-02-12T00:01:13;18.20;;;7.20;;
74415;SDS011;62850;42.428;25.618;2023-02-12T00:03:39;16.48;;;6.10;;
74415;SDS011;62850;42.428;25.618;2023-02-12T00:06:06;12.30;;;5.50;;
74415;SDS011;62850;42.428;25.618;2023-02-12T00:08:33;12.98;;;5.15;;
74415;SDS011;62850;42.428;25.618;2023-02-12T00:11:05;13.13;;;4.68;;
74415;SDS011;62850;42.428;25.618;2023-02-12T00:13:33;14.77;;;5.65;;
74415;SDS011;62850;42.428;25.618;2023-02-12T00:16:02;17.52;;;6.43;;
74415;SDS011;62850;42.428;25.618;2023-02-12T00:18:29;17.05;;;7.85;;
74415;SDS011;62850;42.428;25.618;2023-02-12T00:20:54;15.27;;;6.90;;
74415;SDS011;62850;42.428;25.618;2023-02-12T00:23:23;13.43;;;7.15;;
74415;SDS011;62850;42.428;25.618;2023-02-12T00:25:49;16.27;;;8.65;;
74415;SDS011;62850;42.428;25.618;2023-02-12T00:28:14;17.75;;;7.13;;
74415;SDS011;62850;42.428;25.618;2023-02-12T00:30:40;15.32;;;6.00;;
74415;SDS011;62850;42.428;25.618;2023-02-12T00:33:05;14.30;;;6.55;;
74415;SDS011;62850;42.428;25.618;2023-02-12T00:35:31;17.33;;;7.70;;
74415;SDS011;62850;42.428;25.618;2023-02-12T00:37:56;24.80;;;8.77;;
74415;SDS011;62850;42.428;25.618;2023-02-12T00:40:22;17.65;;;7.07;;
74415;SDS011;62850;42.428;25.618;2023-02-12T00:42:47;14.85;;;6.72;;
74415;SDS011;62850;42.428;25.618;2023-02-12T00:45:13;17.00;;;7.00;;
74415;SDS011;62850;42.428;25.618;2023-02-12T00:47:38;18.42;;;6.07;;
74415;SDS011;62850;42.428;25.618;2023-02-12T00:50:04;15.98;;;6.10;;
74415;SDS011;62850;42.428;25.618;2023-02-12T00:52:30;16.55;;;6.88;;
74415;SDS011;62850;42.428;25.618;2023-02-12T00:54:55;20.20;;;7.38;;
74415;SDS011;62850;42.428;25.618;2023-02-12T00:57:21;20.27;;;8.55;;
74415;SDS011;62850;42.428;25.618;2023-02-12T00:59:46;21.98;;;9.23;;
74415;SDS011;62850;42.428;25.618;2023-02-12T01:02:12;20.80;;;8.45;;
74415;SDS011;62850;42.428;25.618;2023-02-12T01:04:37;21.88;;;8.98;;
74415;SDS011;62850;42.428;25.618;2023-02-12T01:07:03;18.70;;;7.25;;
74415;SDS011;62850;42.428;25.618;2023-02-12T01:09:28;16.38;;;6.72;;
74415;SDS011;62850;42.428;25.618;2023-02-12T01:11:54;14.13;;;5.63;;
74415;SDS011;62850;42.428;25.618;2023-02-12T01:14:19;14.77;;;6.57;;
74415;SDS011;62850;42.428;25.618;2023-02-12T01:16:45;15.73;;;6.15;;
74415;SDS011;62850;42.428;25.618;2023-02-12T01:19:10;17.50;;;6.88;;
74415;SDS011;62850;42.428;25.618;2023-02-12T01:21:37;15.98;;;6.93;;
74415;SDS011;62850;42.428;25.618;2023-02-12T01:24:03;17.27;;;7.22;;
74415;SDS011;62850;42.428;25.618;2023-02-12T01:26:29;18.00;;;6.95;;
74415;SDS011;62850;42.428;25.618;2023-02-12T01:28:57;16.02;;;6.72;;
74415;SDS011;62850;42.428;25.618;2023-02-12T01:31:27;15.10;;;6.32;;
74415;SDS011;62850;42.428;25.618;2023-02-12T01:33:56;15.27;;;6.55;;
74415;SDS011;62850;42.428;25.618;2023-02-12T01:36:23;13.95;;;6.15;;
74415;SDS011;62850;42.428;25.618;2023-02-12T01:38:49;15.52;;;6.53;;
74415;SDS011;62850;42.428;25.618;2023-02-12T01:41:19;15.13;;;6.15;;
74415;SDS011;62850;42.428;25.618;2023-02-12T01:46:34;16.02;;;5.95;;
74415;SDS011;62850;42.428;25.618;2023-02-12T01:49:00;11.25;;;5.47;;
74415;SDS011;62850;42.428;25.618;2023-02-12T01:51:29;13.05;;;5.72;;
74415;SDS011;62850;42.428;25.618;2023-02-12T01:53:55;14.52;;;6.13;;
74415;SDS011;62850;42.428;25.618;2023-02-12T01:56:25;12.30;;;5.68;;
74415;SDS011;62850;42.428;25.618;2023-02-12T01:58:51;13.02;;;5.70;;
74415;SDS011;62850;42.428;25.618;2023-02-12T02:01:20;14.38;;;6.13;;
74415;SDS011;62850;42.428;25.618;2023-02-12T02:03:49;11.90;;;5.53;;
74415;SDS011;62850;42.428;25.618;2023-02-12T02:06:29;12.00;;;5.80;;
74415;SDS011;62850;42.428;25.618;2023-02-12T02:09:00;13.30;;;6.03;;
74415;SDS011;62850;42.428;25.618;2023-02-12T02:11:26;18.40;;;6.80;;
74415;SDS011;62850;42.428;25.618;2023-02-12T02:14:11;15.27;;;6.40;;
74415;SDS011;62850;42.428;25.618;2023-02-12T02:17:05;20.23;;;7.05;;
74415;SDS011;62850;42.428;25.618;2023-02-12T02:33:56;16.15;;;7.25;;
74415;SDS011;62850;42.428;25.618;2023-02-12T02:36:37;17.40;;;7.65;;
74415;SDS011;62850;42.428;25.618;2023-02-12T02:42:09;18.30;;;7.22;;
74415;SDS011;62850;42.428;25.618;2023-02-12T02:47:34;14.07;;;7.20;;
74415;SDS011;62850;42.428;25.618;2023-02-12T02:50:21;15.85;;;6.57;;
74415;SDS011;62850;42.428;25.618;2023-02-12T02:52:49;15.85;;;7.15;;
74415;SDS011;62850;42.428;25.618;2023-02-12T02:55:24;22.67;;;6.68;;
74415;SDS011;62850;42.428;25.618;2023-02-12T02:57:55;19.17;;;6.63;;
74415;SDS011;62850;42.428;25.618;2023-02-12T03:00:30;19.63;;;6.78;;
74415;SDS011;62850;42.428;25.618;2023-02-12T03:03:01;18.42;;;7.85;;
74415;SDS011;62850;42.428;25.618;2023-02-12T03:05:34;14.45;;;6.80;;
74415;SDS011;62850;42.428;25.618;2023-02-12T03:08:06;16.38;;;6.25;;
74415;SDS011;62850;42.428;25.618;2023-02-12T03:10:41;17.48;;;6.68;;
74415;SDS011;62850;42.428;25.618;2023-02-12T03:15:40;15.10;;;5.93;;
74415;SDS011;62850;42.428;25.618;2023-02-12T03:18:09;14.73;;;5.63;;
74415;SDS011;62850;42.428;25.618;2023-02-12T03:20:42;14.95;;;6.18;;
74415;SDS011;62850;42.428;25.618;2023-02-12T03:23:15;14.68;;;5.93;;
74415;SDS011;62850;42.428;25.618;2023-02-12T03:25:51;13.18;;;6.43;;
74415;SDS011;62850;42.428;25.618;2023-02-12T03:28:21;15.52;;;6.43;;
74415;SDS011;62850;42.428;25.618;2023-02-12T03:33:55;16.60;;;7.25;;
74415;SDS011;62850;42.428;25.618;2023-02-12T03:36:50;16.83;;;6.78;;
74415;SDS011;62850;42.428;25.618;2023-02-12T03:42:23;16.30;;;6.63;;
74415;SDS011;62850;42.428;25.618;2023-02-12T03:52:36;16.27;;;7.03;;
74415;SDS011;62850;42.428;25.618;2023-02-12T03:55:02;18.95;;;6.93;;
74415;SDS011;62850;42.428;25.618;2023-02-12T03:57:30;14.52;;;6.05;;
74415;SDS011;62850;42.428;25.618;2023-02-12T04:00:10;16.13;;;6.95;;
74415;SDS011;62850;42.428;25.618;2023-02-12T04:02:40;14.30;;;6.47;;
74415;SDS011;62850;42.428;25.618;2023-02-12T04:05:07;16.20;;;7.32;;
74415;SDS011;62850;42.428;25.618;2023-02-12T04:07:33;17.25;;;7.30;;
74415;SDS011;62850;42.428;25.618;2023-02-12T04:10:00;15.10;;;7.05;;
74415;SDS011;62850;42.428;25.618;2023-02-12T04:12:32;14.88;;;6.55;;
74415;SDS011;62850;42.428;25.618;2023-02-12T04:21:02;17.05;;;6.80;;
74415;SDS011;62850;42.428;25.618;2023-02-12T04:33:56;15.50;;;6.45;;
74415;SDS011;62850;42.428;25.618;2023-02-12T04:36:29;16.00;;;6.97;;
74415;SDS011;62850;42.428;25.618;2023-02-12T04:38:59;16.88;;;7.40;;
74415;SDS011;62850;42.428;25.618;2023-02-12T04:41:30;16.10;;;7.05;;
74415;SDS011;62850;42.428;25.618;2023-02-12T04:43:56;17.60;;;7.03;;
74415;SDS011;62850;42.428;25.618;2023-02-12T04:46:22;14.95;;;6.88;;
74415;SDS011;62850;42.428;25.618;2023-02-12T04:48:56;17.33;;;7.25;;
74415;SDS011;62850;42.428;25.618;2023-02-12T04:51:23;13.68;;;6.20;;
74415;SDS011;62850;42.428;25.618;2023-02-12T04:53:48;13.40;;;6.25;;
74415;SDS011;62850;42.428;25.618;2023-02-12T04:56:15;17.55;;;6.85;;
74415;SDS011;62850;42.428;25.618;2023-02-12T04:58:40;17.17;;;6.70;;
74415;SDS011;62850;42.428;25.618;2023-02-12T05:01:07;19.77;;;7.80;;
74415;SDS011;62850;42.428;25.618;2023-02-12T05:03:34;21.35;;;8.15;;
74415;SDS011;62850;42.428;25.618;2023-02-12T05:06:07;19.67;;;7.97;;
74415;SDS011;62850;42.428;25.618;2023-02-12T05:08:33;19.05;;;7.97;;
74415;SDS011;62850;42.428;25.618;2023-02-12T05:11:03;20.00;;;7.35;;
74415;SDS011;62850;42.428;25.618;2023-02-12T05:13:29;16.40;;;7.22;;
74415;SDS011;62850;42.428;25.618;2023-02-12T05:15:55;18.60;;;7.85;;
74415;SDS011;62850;42.428;25.618;2023-02-12T05:18:20;17.65;;;6.55;;
74415;SDS011;62850;42.428;25.618;2023-02-12T05:20:53;19.35;;;6.70;;
74415;SDS011;62850;42.428;25.618;2023-02-12T05:23:20;16.60;;;7.57;;
74415;SDS011;62850;42.428;25.618;2023-02-12T05:25:45;20.02;;;7.57;;
74415;SDS011;62850;42.428;25.618;2023-02-12T05:28:10;19.40;;;7.10;;
74415;SDS011;62850;42.428;25.618;2023-02-12T05:30:36;21.50;;;7.75;;
74415;SDS011;62850;42.428;25.618;2023-02-12T05:33:02;20.48;;;7.47;;
74415;SDS011;62850;42.428;25.618;2023-02-12T05:35:27;21.77;;;7.28;;
74415;SDS011;62850;42.428;25.618;2023-02-12T05:37:53;18.05;;;8.15;;
74415;SDS011;62850;42.428;25.618;2023-02-12T05:40:18;21.30;;;7.07;;
74415;SDS011;62850;42.428;25.618;2023-02-12T05:42:44;26.17;;;9.40;;
74415;SDS011;62850;42.428;25.618;2023-02-12T05:45:09;20.30;;;8.50;;
74415;SDS011;62850;42.428;25.618;2023-02-12T05:47:35;27.05;;;9.73;;
74415;SDS011;62850;42.428;25.618;2023-02-12T05:50:00;17.45;;;8.10;;
74415;SDS011;62850;42.428;25.618;2023-02-12T05:52:26;20.35;;;8.40;;
74415;SDS011;62850;42.428;25.618;2023-02-12T05:54:51;19.98;;;8.77;;
74415;SDS011;62850;42.428;25.618;2023-02-12T05:57:17;19.27;;;7.82;;
74415;SDS011;62850;42.428;25.618;2023-02-12T05:59:42;37.13;;;15.10;;
74415;SDS011;62850;42.428;25.618;2023-02-12T06:02:08;36.67;;;13.40;;
74415;SDS011;62850;42.428;25.618;2023-02-12T06:04:33;29.48;;;10.32;;
74415;SDS011;62850;42.428;25.618;2023-02-12T06:06:59;23.92;;;10.80;;
74415;SDS011;62850;42.428;25.618;2023-02-12T06:09:24;23.95;;;11.15;;
74415;SDS011;62850;42.428;25.618;2023-02-12T06:11:50;33.25;;;11.85;;
74415;SDS011;62850;42.428;25.618;2023-02-12T06:14:16;31.85;;;11.55;;
74415;SDS011;62850;42.428;25.618;2023-02-12T06:16:44;26.73;;;10.88;;
74415;SDS011;62850;42.428;25.618;2023-02-12T06:19:11;28.75;;;10.50;;
74415;SDS011;62850;42.428;25.618;2023-02-12T06:21:36;23.40;;;8.68;;
74415;SDS011;62850;42.428;25.618;2023-02-12T06:24:02;26.30;;;9.98;;
74415;SDS011;62850;42.428;25.618;2023-02-12T06:26:28;26.35;;;9.45;;
74415;SDS011;62850;42.428;25.618;2023-02-12T06:28:54;25.98;;;9.68;;
74415;SDS011;62850;42.428;25.618;2023-02-12T06:33:45;25.20;;;8.48;;
74415;SDS011;62850;42.428;25.618;2023-02-12T06:36:11;25.67;;;9.00;;
74415;SDS011;62850;42.428;25.618;2023-02-12T06:38:36;30.42;;;12.80;;
74415;SDS011;62850;42.428;25.618;2023-02-12T06:41:02;25.85;;;11.57;;
74415;SDS011;62850;42.428;25.618;2023-02-12T06:43:29;26.27;;;10.35;;
74415;SDS011;62850;42.428;25.618;2023-02-12T06:45:54;24.30;;;9.05;;
74415;SDS011;62850;42.428;25.618;2023-02-12T06:48:20;25.48;;;10.07;;
74415;SDS011;62850;42.428;25.618;2023-02-12T06:50:46;24.58;;;10.82;;
74415;SDS011;62850;42.428;25.618;2023-02-12T06:53:11;29.33;;;10.65;;
74415;SDS011;62850;42.428;25.618;2023-02-12T06:55:37;29.63;;;9.90;;
74415;SDS011;62850;42.428;25.618;2023-02-12T06:58:02;26.42;;;10.63;;
74415;SDS011;62850;42.428;25.618;2023-02-12T07:00:28;28.35;;;9.75;;
74415;SDS011;62850;42.428;25.618;2023-02-12T07:02:54;30.17;;;12.38;;
74415;SDS011;62850;42.428;25.618;2023-02-12T07:05:20;31.08;;;13.93;;
74415;SDS011;62850;42.428;25.618;2023-02-12T07:07:47;35.75;;;14.52;;
74415;SDS011;62850;42.428;25.618;2023-02-12T07:10:12;45.10;;;15.90;;
74415;SDS011;62850;42.428;25.618;2023-02-12T07:12:38;36.92;;;16.52;;
74415;SDS011;62850;42.428;25.618;2023-02-12T07:15:03;39.05;;;15.43;;
74415;SDS011;62850;42.428;25.618;2023-02-12T07:17:29;41.90;;;16.90;;
74415;SDS011;62850;42.428;25.618;2023-02-12T07:19:55;41.55;;;16.38;;
74415;SDS011;62850;42.428;25.618;2023-02-12T07:22:21;48.13;;;18.42;;
74415;SDS011;62850;42.428;25.618;2023-02-12T07:24:46;45.17;;;17.38;;
74415;SDS011;62850;42.428;25.618;2023-02-12T07:27:12;43.75;;;17.25;;
74415;SDS011;62850;42.428;25.618;2023-02-12T07:29:38;46.45;;;17.95;;
74415;SDS011;62850;42.428;25.618;2023-02-12T07:32:04;37.13;;;16.80;;
74415;SDS011;62850;42.428;25.618;2023-02-12T07:34:30;40.72;;;17.48;;
74415;SDS011;62850;42.428;25.618;2023-02-12T07:36:55;36.88;;;15.75;;
74415;SDS011;62850;42.428;25.618;2023-02-12T07:39:21;39.45;;;19.13;;
74415;SDS011;62850;42.428;25.618;2023-02-12T07:41:46;46.47;;;21.30;;
74415;SDS011;62850;42.428;25.618;2023-02-12T07:44:12;52.55;;;21.45;;
74415;SDS011;62850;42.428;25.618;2023-02-12T07:49:14;44.17;;;20.13;;
74415;SDS011;62850;42.428;25.618;2023-02-12T07:51:41;40.88;;;19.63;;
74415;SDS011;62850;42.428;25.618;2023-02-12T07:54:07;44.90;;;19.02;;
74415;SDS011;62850;42.428;25.618;2023-02-12T07:56:34;46.03;;;18.17;;
74415;SDS011;62850;42.428;25.618;2023-02-12T07:59:05;36.80;;;16.08;;
74415;SDS011;62850;42.428;25.618;2023-02-12T08:01:38;32.42;;;14.68;;
74415;SDS011;62850;42.428;25.618;2023-02-12T08:04:10;50.95;;;15.95;;
74415;SDS011;62850;42.428;25.618;2023-02-12T08:06:41;41.65;;;16.15;;
74415;SDS011;62850;42.428;25.618;2023-02-12T08:09:10;40.80;;;16.30;;
74415;SDS011;62850;42.428;25.618;2023-02-12T08:11:38;42.33;;;17.38;;
74415;SDS011;62850;42.428;25.618;2023-02-12T08:14:04;46.47;;;17.63;;
74415;SDS011;62850;42.428;25.618;2023-02-12T08:16:30;44.50;;;18.30;;
74415;SDS011;62850;42.428;25.618;2023-02-12T08:19:01;40.13;;;17.58;;
74415;SDS011;62850;42.428;25.618;2023-02-12T08:21:26;40.72;;;15.88;;
74415;SDS011;62850;42.428;25.618;2023-02-12T08:23:53;34.58;;;15.75;;
74415;SDS011;62850;42.428;25.618;2023-02-12T08:26:20;35.00;;;15.57;;
74415;SDS011;62850;42.428;25.618;2023-02-12T08:28:50;44.55;;;19.40;;
74415;SDS011;62850;42.428;25.618;2023-02-12T08:31:25;40.40;;;16.33;;
74415;SDS011;62850;42.428;25.618;2023-02-12T08:33:53;39.00;;;19.13;;
74415;SDS011;62850;42.428;25.618;2023-02-12T08:36:20;40.13;;;18.02;;
74415;SDS011;62850;42.428;25.618;2023-02-12T08:38:48;50.03;;;19.58;;
74415;SDS011;62850;42.428;25.618;2023-02-12T08:41:15;37.20;;;17.13;;
74415;SDS011;62850;42.428;25.618;2023-02-12T08:43:43;37.80;;;18.13;;
74415;SDS011;62850;42.428;25.618;2023-02-12T08:46:19;33.33;;;16.70;;
74415;SDS011;62850;42.428;25.618;2023-02-12T08:48:46;33.95;;;15.57;;
74415;SDS011;62850;42.428;25.618;2023-02-12T08:51:13;39.17;;;15.70;;
74415;SDS011;62850;42.428;25.618;2023-02-12T08:53:44;40.17;;;18.30;;
74415;SDS011;62850;42.428;25.618;2023-02-12T08:56:12;35.83;;;16.80;;
74415;SDS011;62850;42.428;25.618;2023-02-12T08:58:39;29.65;;;15.45;;
74415;SDS011;62850;42.428;25.618;2023-02-12T09:01:09;32.75;;;15.68;;
74415;SDS011;62850;42.428;25.618;2023-02-12T09:03:46;33.17;;;15.05;;
74415;SDS011;62850;42.428;25.618;2023-02-12T09:06:12;34.33;;;15.40;;
74415;SDS011;62850;42.428;25.618;2023-02-12T09:08:39;41.13;;;15.52;;
74415;SDS011;62850;42.428;25.618;2023-02-12T09:11:10;34.78;;;15.15;;
74415;SDS011;62850;42.428;25.618;2023-02-12T09:13:38;34.50;;;15.93;;
74415;SDS011;62850;42.428;25.618;2023-02-12T09:16:05;38.03;;;15.55;;
74415;SDS011;62850;42.428;25.618;2023-02-12T09:18:31;34.45;;;16.52;;
74415;SDS011;62850;42.428;25.618;2023-02-12T09:21:01;40.58;;;16.40;;
74415;SDS011;62850;42.428;25.618;2023-02-12T09:23:27;29.42;;;15.10;;
74415;SDS011;62850;42.428;25.618;2023-02-12T09:25:53;33.63;;;14.90;;
74415;SDS011;62850;42.428;25.618;2023-02-12T09:28:18;34.53;;;14.23;;
74415;SDS011;62850;42.428;25.618;2023-02-12T09:30:44;32.58;;;14.05;;
74415;SDS011;62850;42.428;25.618;2023-02-12T09:33:09;28.05;;;12.63;;
74415;SDS011;62850;42.428;25.618;2023-02-12T09:35:39;36.38;;;12.70;;
74415;SDS011;62850;42.428;25.618;2023-02-12T09:38:05;28.40;;;12.68;;
74415;SDS011;62850;42.428;25.618;2023-02-12T09:41:07;37.63;;;12.45;;
74415;SDS011;62850;42.428;25.618;2023-02-12T09:43:41;32.20;;;13.68;;
74415;SDS011;62850;42.428;25.618;2023-02-12T09:46:18;30.75;;;12.75;;
74415;SDS011;62850;42.428;25.618;2023-02-12T09:51:20;24.08;;;11.07;;
74415;SDS011;62850;42.428;25.618;2023-02-12T09:53:46;25.25;;;10.75;;
74415;SDS011;62850;42.428;25.618;2023-02-12T09:56:17;20.50;;;8.85;;
74415;SDS011;62850;42.428;25.618;2023-02-12T09:58:46;19.40;;;8.05;;
74415;SDS011;62850;42.428;25.618;2023-02-12T10:03:43;18.50;;;7.65;;
74415;SDS011;62850;42.428;25.618;2023-02-12T10:06:12;19.52;;;8.63;;
74415;SDS011;62850;42.428;25.618;2023-02-12T10:22:12;17.33;;;6.60;;
74415;SDS011;62850;42.428;25.618;2023-02-12T10:24:51;18.88;;;7.68;;
74415;SDS011;62850;42.428;25.618;2023-02-12T10:30:13;18.73;;;7.93;;
74415;SDS011;62850;42.428;25.618;2023-02-12T10:33:02;22.35;;;8.45;;
74415;SDS011;62850;42.428;25.618;2023-02-12T10:35:31;22.33;;;9.48;;
74415;SDS011;62850;42.428;25.618;2023-02-12T10:38:12;20.83;;;8.00;;
74415;SDS011;62850;42.428;25.618;2023-02-12T10:40:43;15.27;;;6.90;;
74415;SDS011;62850;42.428;25.618;2023-02-12T10:43:10;19.83;;;8.95;;
74415;SDS011;62850;42.428;25.618;2023-02-12T10:45:38;17.42;;;8.70;;
74415;SDS011;62850;42.428;25.618;2023-02-12T10:48:19;18.95;;;8.45;;
74415;SDS011;62850;42.428;25.618;2023-02-12T10:53:35;17.83;;;6.88;;
74415;SDS011;62850;42.428;25.618;2023-02-12T10:56:23;17.95;;;7.35;;
74415;SDS011;62850;42.428;25.618;2023-02-12T11:09:30;17.27;;;7.43;;
74415;SDS011;62850;42.428;25.618;2023-02-12T11:11:59;20.42;;;7.63;;
74415;SDS011;62850;42.428;25.618;2023-02-12T11:14:25;14.27;;;7.05;;
74415;SDS011;62850;42.428;25.618;2023-02-12T11:16:51;20.23;;;7.93;;
74415;SDS011;62850;42.428;25.618;2023-02-12T11:19:23;21.30;;;8.35;;
74415;SDS011;62850;42.428;25.618;2023-02-12T11:24:50;37.45;;;15.73;;
74415;SDS011;62850;42.428;25.618;2023-02-12T11:27:26;33.65;;;14.57;;
74415;SDS011;62850;42.428;25.618;2023-02-12T11:32:41;19.80;;;8.00;;
74415;SDS011;62850;42.428;25.618;2023-02-12T11:35:14;24.63;;;9.02;;
74415;SDS011;62850;42.428;25.618;2023-02-12T11:37:53;18.52;;;8.75;;
74415;SDS011;62850;42.428;25.618;2023-02-12T11:42:47;19.13;;;9.40;;
74415;SDS011;62850;42.428;25.618;2023-02-12T11:45:17;21.90;;;8.93;;
74415;SDS011;62850;42.428;25.618;2023-02-12T11:47:44;19.33;;;9.13;;
74415;SDS011;62850;42.428;25.618;2023-02-12T11:50:17;20.90;;;8.73;;
74415;SDS011;62850;42.428;25.618;2023-02-12T11:52:55;19.20;;;8.43;;
74415;SDS011;62850;42.428;25.618;2023-02-12T11:57:51;23.02;;;10.00;;
74415;SDS011;62850;42.428;25.618;2023-02-12T12:00:20;21.42;;;7.97;;
74415;SDS011;62850;42.428;25.618;2023-02-12T12:03:03;20.98;;;9.57;;
74415;SDS011;62850;42.428;25.618;2023-02-12T12:05:34;18.10;;;8.75;;
74415;SDS011;62850;42.428;25.618;2023-02-12T12:08:03;19.13;;;8.52;;
74415;SDS011;62850;42.428;25.618;2023-02-12T12:11:12;18.27;;;8.48;;
74415;SDS011;62850;42.428;25.618;2023-02-12T12:13:34;19.80;;;8.60;;
74415;SDS011;62850;42.428;25.618;2023-02-12T12:16:08;17.65;;;8.70;;
74415;SDS011;62850;42.428;25.618;2023-02-12T12:19:10;15.63;;;6.40;;
74415;SDS011;62850;42.428;25.618;2023-02-12T12:27:20;14.93;;;5.78;;
74415;SDS011;62850;42.428;25.618;2023-02-12T12:30:40;12.18;;;5.70;;
74415;SDS011;62850;42.428;25.618;2023-02-12T12:33:16;15.45;;;6.53;;
74415;SDS011;62850;42.428;25.618;2023-02-12T12:52:40;13.90;;;6.50;;
74415;SDS011;62850;42.428;25.618;2023-02-12T13:09:19;10.88;;;6.07;;
74415;SDS011;62850;42.428;25.618;2023-02-12T13:15:00;15.38;;;6.72;;
74415;SDS011;62850;42.428;25.618;2023-02-12T13:26:03;11.95;;;5.85;;
74415;SDS011;62850;42.428;25.618;2023-02-12T13:29:03;19.75;;;7.53;;
74415;SDS011;62850;42.428;25.618;2023-02-12T13:32:26;14.02;;;6.07;;
74415;SDS011;62850;42.428;25.618;2023-02-12T13:34:37;14.00;;;6.28;;
74415;SDS011;62850;42.428;25.618;2023-02-12T13:37:05;12.70;;;6.38;;
74415;SDS011;62850;42.428;25.618;2023-02-12T13:39:41;11.18;;;5.78;;
74415;SDS011;62850;42.428;25.618;2023-02-12T13:45:16;19.50;;;7.85;;
74415;SDS011;62850;42.428;25.618;2023-02-12T13:53:05;19.60;;;8.13;;
74415;SDS011;62850;42.428;25.618;2023-02-12T13:55:59;18.77;;;8.00;;
74415;SDS011;62850;42.428;25.618;2023-02-12T13:58:49;23.05;;;9.85;;
74415;SDS011;62850;42.428;25.618;2023-02-12T14:07:14;14.60;;;6.40;;
74415;SDS011;62850;42.428;25.618;2023-02-12T14:09:59;12.95;;;6.03;;
74415;SDS011;62850;42.428;25.618;2023-02-12T14:12:32;10.30;;;4.95;;
74415;SDS011;62850;42.428;25.618;2023-02-12T14:20:47;14.90;;;6.90;;
74415;SDS011;62850;42.428;25.618;2023-02-12T14:23:33;15.02;;;6.15;;
74415;SDS011;62850;42.428;25.618;2023-02-12T14:26:09;14.57;;;5.88;;
74415;SDS011;62850;42.428;25.618;2023-02-12T14:28:50;15.90;;;6.95;;
74415;SDS011;62850;42.428;25.618;2023-02-12T14:36:39;14.25;;;5.85;;
74415;SDS011;62850;42.428;25.618;2023-02-12T14:41:48;14.77;;;6.50;;
74415;SDS011;62850;42.428;25.618;2023-02-12T14:49:20;15.90;;;6.93;;
74415;SDS011;62850;42.428;25.618;2023-02-12T14:52:03;14.95;;;7.13;;
74415;SDS011;62850;42.428;25.618;2023-02-12T14:57:08;16.30;;;7.13;;
74415;SDS011;62850;42.428;25.618;2023-02-12T14:59:43;15.68;;;6.97;;
74415;SDS011;62850;42.428;25.618;2023-02-12T15:02:14;19.85;;;7.72;;
74415;SDS011;62850;42.428;25.618;2023-02-12T15:04:48;15.45;;;7.20;;
74415;SDS011;62850;42.428;25.618;2023-02-12T15:07:16;15.85;;;7.22;;
74415;SDS011;62850;42.428;25.618;2023-02-12T15:09:54;16.60;;;7.60;;
74415;SDS011;62850;42.428;25.618;2023-02-12T15:12:29;17.25;;;7.13;;
74415;SDS011;62850;42.428;25.618;2023-02-12T15:15:06;15.60;;;7.15;;
74415;SDS011;62850;42.428;25.618;2023-02-12T15:17:55;16.52;;;8.13;;
74415;SDS011;62850;42.428;25.618;2023-02-12T15:20:29;15.77;;;7.22;;
74415;SDS011;62850;42.428;25.618;2023-02-12T15:23:23;18.17;;;6.90;;
74415;SDS011;62850;42.428;25.618;2023-02-12T15:25:57;18.38;;;7.85;;
74415;SDS011;62850;42.428;25.618;2023-02-12T15:28:26;15.55;;;7.70;;
74415;SDS011;62850;42.428;25.618;2023-02-12T15:31:00;18.45;;;6.78;;
74415;SDS011;62850;42.428;25.618;2023-02-12T15:33:27;21.45;;;9.30;;
74415;SDS011;62850;42.428;25.618;2023-02-12T15:35:55;17.10;;;7.90;;
74415;SDS011;62850;42.428;25.618;2023-02-12T15:41:02;21.10;;;8.73;;
74415;SDS011;62850;42.428;25.618;2023-02-12T15:43:29;15.25;;;7.72;;
74415;SDS011;62850;42.428;25.618;2023-02-12T15:45:59;17.17;;;7.38;;
74415;SDS011;62850;42.428;25.618;2023-02-12T15:48:31;16.35;;;7.85;;
74415;SDS011;62850;42.428;25.618;2023-02-12T15:51:06;18.02;;;8.18;;
74415;SDS011;62850;42.428;25.618;2023-02-12T15:53:47;17.00;;;7.88;;
74415;SDS011;62850;42.428;25.618;2023-02-12T15:56:15;17.17;;;8.23;;
74415;SDS011;62850;42.428;25.618;2023-02-12T15:58:48;16.83;;;7.85;;
74415;SDS011;62850;42.428;25.618;2023-02-12T16:01:27;16.98;;;8.35;;
74415;SDS011;62850;42.428;25.618;2023-02-12T16:03:58;19.30;;;9.00;;
74415;SDS011;62850;42.428;25.618;2023-02-12T16:06:27;16.90;;;8.48;;
74415;SDS011;62850;42.428;25.618;2023-02-12T16:11:25;18.90;;;9.63;;
74415;SDS011;62850;42.428;25.618;2023-02-12T16:14:03;19.67;;;8.40;;
74415;SDS011;62850;42.428;25.618;2023-02-12T16:17:16;16.33;;;8.35;;
74415;SDS011;62850;42.428;25.618;2023-02-12T16:19:25;20.35;;;8.02;;
74415;SDS011;62850;42.428;25.618;2023-02-12T16:26:53;19.13;;;8.63;;
74415;SDS011;62850;42.428;25.618;2023-02-12T16:29:19;21.85;;;9.43;;
74415;SDS011;62850;42.428;25.618;2023-02-12T16:31:57;19.15;;;8.55;;
74415;SDS011;62850;42.428;25.618;2023-02-12T16:34:29;18.15;;;8.55;;
74415;SDS011;62850;42.428;25.618;2023-02-12T16:37:00;20.60;;;9.45;;
74415;SDS011;62850;42.428;25.618;2023-02-12T16:40:13;22.83;;;9.88;;
74415;SDS011;62850;42.428;25.618;2023-02-12T16:42:17;19.63;;;10.25;;
74415;SDS011;62850;42.428;25.618;2023-02-12T16:44:48;23.20;;;9.65;;
74415;SDS011;62850;42.428;25.618;2023-02-12T16:47:21;19.60;;;9.75;;
74415;SDS011;62850;42.428;25.618;2023-02-12T16:49:55;23.08;;;10.70;;
74415;SDS011;62850;42.428;25.618;2023-02-12T16:55:05;24.45;;;9.43;;
74415;SDS011;62850;42.428;25.618;2023-02-12T16:57:37;21.73;;;10.57;;
74415;SDS011;62850;42.428;25.618;2023-02-12T17:00:03;21.60;;;10.18;;
74415;SDS011;62850;42.428;25.618;2023-02-12T17:02:30;21.38;;;10.00;;
74415;SDS011;62850;42.428;25.618;2023-02-12T17:04:55;21.30;;;9.57;;
74415;SDS011;62850;42.428;25.618;2023-02-12T17:07:24;19.50;;;9.48;;
74415;SDS011;62850;42.428;25.618;2023-02-12T17:09:53;24.55;;;10.25;;
74415;SDS011;62850;42.428;25.618;2023-02-12T17:12:18;23.70;;;11.00;;
74415;SDS011;62850;42.428;25.618;2023-02-12T17:14:44;19.40;;;8.90;;
74415;SDS011;62850;42.428;25.618;2023-02-12T17:17:10;22.38;;;9.18;;
74415;SDS011;62850;42.428;25.618;2023-02-12T17:19:36;19.00;;;9.07;;
74415;SDS011;62850;42.428;25.618;2023-02-12T17:22:01;22.90;;;10.85;;
74415;SDS011;62850;42.428;25.618;2023-02-12T17:24:29;23.40;;;10.75;;
74415;SDS011;62850;42.428;25.618;2023-02-12T17:26:55;22.30;;;10.13;;
74415;SDS011;62850;42.428;25.618;2023-02-12T17:29:23;21.15;;;8.32;;
74415;SDS011;62850;42.428;25.618;2023-02-12T17:31:49;20.63;;;9.60;;
74415;SDS011;62850;42.428;25.618;2023-02-12T17:34:17;17.92;;;7.88;;
74415;SDS011;62850;42.428;25.618;2023-02-12T17:36:43;19.33;;;9.70;;
74415;SDS011;62850;42.428;25.618;2023-02-12T17:39:09;21.95;;;9.90;;
74415;SDS011;62850;42.428;25.618;2023-02-12T17:41:36;21.05;;;9.57;;
74415;SDS011;62850;42.428;25.618;2023-02-12T17:44:02;19.55;;;9.20;;
74415;SDS011;62850;42.428;25.618;2023-02-12T17:46:28;21.00;;;9.55;;
74415;SDS011;62850;42.428;25.618;2023-02-12T17:48:54;16.98;;;8.38;;
74415;SDS011;62850;42.428;25.618;2023-02-12T17:51:20;18.80;;;8.45;;
74415;SDS011;62850;42.428;25.618;2023-02-12T17:53:46;17.20;;;7.15;;
74415;SDS011;62850;42.428;25.618;2023-02-12T17:56:12;14.68;;;7.35;;
74415;SDS011;62850;42.428;25.618;2023-02-12T17:58:40;15.07;;;7.13;;